Time;durP1;ratioP1;P1;durP2;ratioP2;P2;SDS_P1;SDS_P2;PMS_P1;PMS_P2;Temp;Humidity;BMP_temperature;BMP_pressure;BME280_temperature;BME280_humidity;BME280_pressure;Samples;Min_cycle;Max_cycle;Signal;HPM_P1;HPM_P2
2023/07/25 00:02:23;;;;;;;21.77;9.18;;;;;;;22.69;nan;61964.56;5072426;28;20194;-59
2023/07/25 00:04:49;;;;;;;16.05;7.88;;;;;;;22.89;nan;61867.44;5072993;28;20225;-58
2023/07/25 00:07:14;;;;;;;17.52;8.30;;;;;;;22.45;nan;62058.19;5072983;28;20283;-58
2023/07/25 00:09:40;;;;;;;16.52;7.18;;;;;;;22.75;nan;61880.78;5072340;28;20174;-59
2023/07/25 00:12:05;;;;;;;15.95;7.90;;;;;;;22.55;nan;61935.59;5072545;28;20170;-59
2023/07/25 00:14:33;;;;;;;16.13;7.05;;;;;;;22.52;nan;61877.53;5072813;28;20235;-58
2023/07/25 00:16:58;;;;;;;13.73;6.93;;;;;;;22.76;nan;61931.41;5072784;28;20637;-59
2023/07/25 00:19:24;;;;;;;13.02;6.82;;;;;;;22.45;nan;61765.97;5072982;28;20170;-58
2023/07/25 00:21:50;;;;;;;14.55;7.75;;;;;;;22.61;nan;62167.00;5072108;28;20676;-58
2023/07/25 00:24:15;;;;;;;13.95;7.05;;;;;;;22.48;nan;62003.72;5072098;28;20247;-59
2023/07/25 00:26:41;;;;;;;15.13;6.95;;;;;;;22.37;nan;61835.59;5072699;28;20223;-58
2023/07/25 00:29:06;;;;;;;15.05;7.22;;;;;;;22.37;nan;61864.22;5072165;28;20177;-59
2023/07/25 00:31:31;;;;;;;18.77;8.32;;;;;;;22.39;nan;61863.31;5072736;28;20649;-58
2023/07/25 00:33:57;;;;;;;16.73;7.97;;;;;;;22.65;nan;61924.13;5072180;28;20368;-59
2023/07/25 00:36:22;;;;;;;14.55;8.00;;;;;;;22.31;nan;61789.72;5072354;28;20263;-59
2023/07/25 00:38:47;;;;;;;17.33;7.75;;;;;;;22.46;nan;61952.56;5071973;28;20277;-59
2023/07/25 00:41:13;;;;;;;14.50;7.35;;;;;;;22.31;nan;61828.19;5071801;28;20198;-58
2023/07/25 00:43:38;;;;;;;13.95;7.22;;;;;;;22.45;nan;61943.03;5072183;28;20241;-59
2023/07/25 00:46:04;;;;;;;12.55;7.00;;;;;;;22.31;nan;61812.56;5072197;28;20162;-58
2023/07/25 00:48:30;;;;;;;14.00;7.03;;;;;;;22.47;nan;61940.13;5071868;28;20642;-59
2023/07/25 00:50:55;;;;;;;16.38;8.32;;;;;;;22.38;nan;61862.72;5072295;28;20212;-59
2023/07/25 00:53:21;;;;;;;16.60;7.45;;;;;;;22.28;nan;61736.28;5072049;28;20181;-58
2023/07/25 00:55:47;;;;;;;16.42;6.57;;;;;;;22.55;nan;61899.72;5071979;28;20652;-58
2023/07/25 00:58:13;;;;;;;11.75;6.53;;;;;;;22.45;nan;61838.88;5072189;28;20197;-58
2023/07/25 01:00:39;;;;;;;15.10;7.40;;;;;;;22.34;nan;61889.44;5054059;28;20197;-58
2023/07/25 01:03:05;;;;;;;16.13;7.40;;;;;;;22.34;nan;61884.22;5071906;28;20189;-58
2023/07/25 01:05:35;;;;;;;17.95;8.48;;;;;;;22.02;nan;61696.97;5072256;28;20284;-59
2023/07/25 01:08:00;;;;;;;19.45;8.93;;;;;;;22.23;nan;61832.13;5071702;28;20609;-58
2023/07/25 01:10:26;;;;;;;19.20;8.07;;;;;;;22.16;nan;61928.84;5072016;28;20272;-58
2023/07/25 01:12:51;;;;;;;16.10;8.13;;;;;;;22.02;nan;61785.44;5072333;28;20166;-57
2023/07/25 01:15:16;;;;;;;18.02;7.82;;;;;;;21.78;nan;61695.78;5071939;28;20253;-59
2023/07/25 01:17:42;;;;;;;18.35;7.93;;;;;;;21.69;nan;61891.03;5071625;28;20633;-59
2023/07/25 01:20:10;;;;;;;15.82;7.75;;;;;;;21.79;nan;61822.31;5071652;28;20197;-58
2023/07/25 01:22:36;;;;;;;20.70;8.73;;;;;;;22.00;nan;61911.25;5071401;28;20742;-58
2023/07/25 01:25:02;;;;;;;17.23;8.35;;;;;;;21.96;nan;61745.38;5070195;28;20247;-59
2023/07/25 01:27:27;;;;;;;17.55;7.85;;;;;;;21.93;nan;61757.56;5071575;28;20219;-59
2023/07/25 01:29:53;;;;;;;19.33;7.00;;;;;;;21.88;nan;61728.47;5071476;28;20243;-59
2023/07/25 01:32:18;;;;;;;19.80;8.38;;;;;;;21.63;nan;61746.94;5071720;28;20170;-58
2023/07/25 01:34:43;;;;;;;15.20;8.23;;;;;;;21.80;nan;61755.81;5074304;28;20290;-58
2023/07/25 01:37:09;;;;;;;15.65;7.68;;;;;;;21.85;nan;61760.94;5074971;28;20177;-58
2023/07/25 01:39:34;;;;;;;18.92;8.10;;;;;;;21.74;nan;62044.97;5075280;28;20173;-59
2023/07/25 01:42:00;;;;;;;19.13;8.73;;;;;;;21.77;nan;61816.88;5075331;28;20212;-58
2023/07/25 01:44:25;;;;;;;18.13;8.00;;;;;;;21.71;nan;61766.41;5076067;28;20166;-58
2023/07/25 01:46:51;;;;;;;17.02;7.55;;;;;;;21.71;nan;61854.28;5074167;28;20178;-59
2023/07/25 01:49:16;;;;;;;17.95;7.20;;;;;;;21.30;nan;61878.47;5074771;28;20174;-57
2023/07/25 01:51:42;;;;;;;18.58;8.38;;;;;;;21.67;nan;61823.72;5092788;28;20230;-59
2023/07/25 01:54:07;;;;;;;16.67;7.75;;;;;;;21.72;nan;61759.75;5075016;28;20178;-58
2023/07/25 01:56:33;;;;;;;17.40;7.78;;;;;;;21.52;nan;61895.66;5074756;28;20182;-57
2023/07/25 01:58:58;;;;;;;16.30;7.72;;;;;;;21.49;nan;61655.69;5093103;28;20554;-57
2023/07/25 02:01:23;;;;;;;16.00;7.07;;;;;;;21.77;nan;61783.06;5074595;28;20201;-58
2023/07/25 02:03:49;;;;;;;14.63;7.72;;;;;;;21.76;nan;61746.09;5085200;28;20177;-58
2023/07/25 02:06:14;;;;;;;15.13;7.45;;;;;;;21.79;nan;61774.91;5081865;28;20607;-58
2023/07/25 02:08:40;;;;;;;16.95;8.02;;;;;;;21.67;nan;61722.88;5074393;28;20196;-58
2023/07/25 02:11:05;;;;;;;15.32;7.40;;;;;;;21.47;nan;61724.16;5092595;28;20212;-59
2023/07/25 02:13:30;;;;;;;13.00;6.60;;;;;;;21.39;nan;61712.50;5077433;28;20182;-59
2023/07/25 02:15:56;;;;;;;15.98;7.50;;;;;;;21.67;nan;61772.28;5092519;28;20682;-57
2023/07/25 02:18:21;;;;;;;16.70;7.88;;;;;;;21.33;nan;61647.94;5074736;28;20224;-59
2023/07/25 02:20:47;;;;;;;17.25;8.05;;;;;;;21.33;nan;61807.06;5072602;28;20194;-59
2023/07/25 02:23:12;;;;;;;16.15;8.48;;;;;;;21.57;nan;61742.75;5073724;28;20185;-58
2023/07/25 02:25:38;;;;;;;17.48;8.60;;;;;;;21.43;nan;61821.03;5074353;28;20268;-57
2023/07/25 02:28:03;;;;;;;19.50;8.20;;;;;;;21.30;nan;61813.50;5081190;28;20285;-59
2023/07/25 02:30:29;;;;;;;18.25;8.55;;;;;;;21.53;nan;61759.56;5090287;28;20177;-57
2023/07/25 02:32:54;;;;;;;17.92;8.02;;;;;;;21.33;nan;61809.09;5076518;28;20243;-58
2023/07/25 02:35:20;;;;;;;17.10;7.68;;;;;;;21.54;nan;61744.53;5077230;28;20208;-58
2023/07/25 02:37:45;;;;;;;14.00;7.38;;;;;;;21.30;nan;61839.47;5094113;28;20177;-58
2023/07/25 02:40:11;;;;;;;17.00;8.15;;;;;;;21.47;nan;61981.56;5094743;28;20291;-58
2023/07/25 02:42:36;;;;;;;16.58;8.43;;;;;;;21.24;nan;61666.34;5094539;28;20212;-58
2023/07/25 02:45:02;;;;;;;15.65;8.02;;;;;;;21.35;nan;61813.97;5093885;28;20174;-58
2023/07/25 02:47:27;;;;;;;20.42;7.95;;;;;;;21.54;nan;61731.53;5094380;28;20169;-59
2023/07/25 02:49:52;;;;;;;14.65;7.30;;;;;;;21.19;nan;61691.84;5094525;28;20252;-59
2023/07/25 02:52:18;;;;;;;15.98;8.38;;;;;;;21.14;nan;61695.13;5094193;28;20177;-58
2023/07/25 02:54:44;;;;;;;15.95;7.82;;;;;;;21.45;nan;61731.75;5094224;28;20176;-57
2023/07/25 02:57:09;;;;;;;14.02;7.70;;;;;;;21.54;nan;61752.34;5094253;28;20166;-58
2023/07/25 02:59:35;;;;;;;15.50;7.63;;;;;;;21.38;nan;61859.53;5084871;28;20186;-57
2023/07/25 03:02:00;;;;;;;14.90;7.95;;;;;;;21.48;nan;61724.72;5085324;28;20204;-57
2023/07/25 03:04:25;;;;;;;13.82;7.22;;;;;;;21.26;nan;61627.03;5077386;28;20186;-57
2023/07/25 03:06:51;;;;;;;16.05;7.85;;;;;;;21.58;nan;61721.03;5072673;28;20637;-56
2023/07/25 03:09:16;;;;;;;17.33;8.32;;;;;;;21.65;nan;61884.44;5073076;28;20231;-57
2023/07/25 03:11:42;;;;;;;12.40;7.13;;;;;;;21.43;nan;61906.81;5082566;28;20662;-58
2023/07/25 03:14:07;;;;;;;14.35;7.18;;;;;;;21.29;nan;61630.97;5079710;28;20174;-58
2023/07/25 03:16:32;;;;;;;16.95;7.78;;;;;;;21.29;nan;61672.56;5082555;28;20261;-59
2023/07/25 03:18:58;;;;;;;17.60;8.13;;;;;;;21.33;nan;61686.94;5082678;28;20181;-58
2023/07/25 03:21:23;;;;;;;19.25;8.10;;;;;;;21.42;nan;61728.31;5073069;28;20220;-58
2023/07/25 03:23:49;;;;;;;15.18;7.25;;;;;;;21.40;nan;61793.66;5077043;28;20182;-58
2023/07/25 03:26:14;;;;;;;14.57;7.63;;;;;;;21.68;nan;61762.47;5078467;28;20622;-58
2023/07/25 03:28:40;;;;;;;17.98;7.95;;;;;;;21.76;nan;61774.69;5086027;28;20657;-57
2023/07/25 03:31:05;;;;;;;18.63;8.50;;;;;;;21.89;nan;61867.50;5073222;28;20178;-57
2023/07/25 03:33:31;;;;;;;18.23;8.38;;;;;;;22.04;nan;61894.41;5085575;28;20566;-58
2023/07/25 03:35:56;;;;;;;14.93;7.57;;;;;;;22.32;nan;61897.03;5093780;28;20261;-57
2023/07/25 03:38:21;;;;;;;15.52;7.65;;;;;;;22.26;nan;61819.91;5093449;28;20551;-57
2023/07/25 03:40:47;;;;;;;17.10;8.27;;;;;;;22.88;nan;61929.44;5093527;28;20252;-58
2023/07/25 03:43:12;;;;;;;16.23;7.90;;;;;;;22.97;nan;62076.66;5092845;28;20169;-58
2023/07/25 03:45:38;;;;;;;18.42;8.68;;;;;;;23.34;nan;61933.63;5075141;28;20186;-58
2023/07/25 03:48:03;;;;;;;17.35;8.25;;;;;;;21.09;nan;63620.44;5088985;28;20170;-58
2023/07/25 03:50:29;;;;;;;16.20;7.82;;;;;;;24.31;nan;62392.84;5072907;28;20181;-58
2023/07/25 03:52:58;;;;;;;16.90;8.35;;;;;;;24.58;nan;62112.72;5074474;28;20186;-59
2023/07/25 03:55:23;;;;;;;16.92;8.05;;;;;;;24.97;nan;62153.41;5076691;28;20182;-58
2023/07/25 03:57:49;;;;;;;16.25;7.57;;;;;;;25.62;nan;62331.59;5081916;28;20660;-58
2023/07/25 04:00:14;;;;;;;17.48;7.47;;;;;;;26.09;nan;62352.66;5080971;28;20186;-59
2023/07/25 04:02:40;;;;;;;16.65;7.78;;;;;;;26.35;nan;62707.94;5072873;28;20198;-58
2023/07/25 04:05:07;;;;;;;15.25;7.60;;;;;;;26.84;nan;62742.03;5076076;28;20748;-58
2023/07/25 04:07:34;;;;;;;13.77;7.28;;;;;;;27.01;nan;62590.44;5088380;28;20503;-58
2023/07/25 04:09:59;;;;;;;16.00;7.35;;;;;;;27.41;nan;62599.50;5074145;28;20194;-58
2023/07/25 04:12:24;;;;;;;11.85;6.65;;;;;;;27.63;nan;62561.09;5075477;28;20185;-58
2023/07/25 04:14:50;;;;;;;12.32;6.95;;;;;;;28.16;nan;62725.75;5093094;28;20181;-59
2023/07/25 04:17:15;;;;;;;15.82;7.82;;;;;;;28.34;nan;62643.84;5082380;28;20221;-59
2023/07/25 04:19:41;;;;;;;17.05;7.57;;;;;;;29.06;nan;62841.56;5080859;28;20562;-59
2023/07/25 04:22:06;;;;;;;13.85;7.45;;;;;;;29.04;nan;62755.00;5078035;28;20677;-60
2023/07/25 04:24:32;;;;;;;14.52;7.13;;;;;;;29.57;nan;62886.34;5071908;28;20270;-59
2023/07/25 04:26:57;;;;;;;16.20;7.45;;;;;;;29.89;nan;62919.91;5073437;28;20315;-58
2023/07/25 04:29:23;;;;;;;14.98;7.30;;;;;;;29.72;nan;63001.09;5074305;28;20170;-59
2023/07/25 04:31:48;;;;;;;14.85;7.40;;;;;;;29.83;nan;63213.47;5071152;28;20181;-58
2023/07/25 04:34:14;;;;;;;13.15;7.05;;;;;;;29.81;nan;63027.25;5070600;28;20174;-58
2023/07/25 04:36:39;;;;;;;13.18;6.55;;;;;;;29.91;nan;62921.63;5071547;28;20311;-58
2023/07/25 04:39:05;;;;;;;14.05;6.70;;;;;;;30.04;nan;62926.00;5071960;28;20184;-60
2023/07/25 04:41:30;;;;;;;14.25;6.85;;;;;;;30.10;nan;62988.28;5070491;28;20202;-60
2023/07/25 04:43:55;;;;;;;15.52;7.00;;;;;;;30.29;nan;62949.44;5070827;28;20589;-58
2023/07/25 04:46:21;;;;;;;18.10;6.82;;;;;;;30.34;nan;63133.97;5071223;28;20668;-60
2023/07/25 04:48:46;;;;;;;12.88;7.10;;;;;;;30.48;nan;63002.94;5071511;28;20189;-60
2023/07/25 04:51:12;;;;;;;15.38;7.28;;;;;;;30.42;nan;63029.75;5071111;28;20178;-60
2023/07/25 04:53:37;;;;;;;13.65;6.45;;;;;;;30.38;nan;63020.44;5071625;28;20174;-60
2023/07/25 04:56:03;;;;;;;12.75;6.85;;;;;;;30.40;nan;62985.81;4901616;28;20189;-60
2023/07/25 04:58:29;;;;;;;17.17;6.95;;;;;;;30.61;nan;63101.78;4639882;28;20910;-61
2023/07/25 05:00:54;;;;;;;17.33;7.00;;;;;;;30.59;nan;63166.00;4586116;28;20999;-63
2023/07/25 05:03:20;;;;;;;18.52;6.90;;;;;;;30.83;nan;63081.63;4894803;28;20192;-60
2023/07/25 05:05:45;;;;;;;16.58;6.90;;;;;;;30.87;nan;63162.78;5071359;28;20227;-59
2023/07/25 05:08:10;;;;;;;12.25;6.43;;;;;;;30.71;nan;63055.75;5052886;28;20173;-59
2023/07/25 05:10:36;;;;;;;13.90;6.30;;;;;;;30.63;nan;63064.47;5070336;28;20670;-59
2023/07/25 05:13:01;;;;;;;18.55;7.22;;;;;;;30.69;nan;63058.75;5082370;28;20276;-59
2023/07/25 05:15:27;;;;;;;14.35;6.57;;;;;;;30.13;nan;62949.53;5073331;28;20205;-61
2023/07/25 05:17:52;;;;;;;14.10;6.80;;;;;;;30.34;nan;63306.03;5069055;28;20663;-60
2023/07/25 05:20:18;;;;;;;13.50;6.93;;;;;;;30.46;nan;63180.06;5088662;28;20809;-59
2023/07/25 05:22:43;;;;;;;11.90;6.60;;;;;;;30.72;nan;63103.84;5090644;28;20192;-59
2023/07/25 05:25:09;;;;;;;11.70;6.30;;;;;;;30.67;nan;63082.25;5090512;28;20172;-59
2023/07/25 05:27:34;;;;;;;15.73;7.25;;;;;;;30.79;nan;63106.06;5088403;28;20165;-58
2023/07/25 05:30:00;;;;;;;13.30;7.03;;;;;;;30.52;nan;63139.47;5088424;28;20263;-60
2023/07/25 05:32:25;;;;;;;19.85;6.88;;;;;;;30.82;nan;63135.91;5089770;28;20180;-59
2023/07/25 05:34:50;;;;;;;15.77;7.10;;;;;;;30.23;nan;63001.16;5090475;28;20177;-59
2023/07/25 05:37:20;;;;;;;11.88;6.97;;;;;;;29.51;nan;62878.88;5076161;28;20595;-59
2023/07/25 05:39:46;;;;;;;13.10;7.35;;;;;;;29.58;nan;62926.47;5087732;28;20173;-59
2023/07/25 05:42:11;;;;;;;11.55;6.30;;;;;;;29.63;nan;62895.88;5072061;28;20189;-59
2023/07/25 05:44:36;;;;;;;11.35;5.65;;;;;;;29.16;nan;62826.13;5075483;28;20177;-59
2023/07/25 05:47:05;;;;;;;9.10;5.50;;;;;;;28.93;nan;62882.47;5091405;28;20222;-59
2023/07/25 05:49:30;;;;;;;8.60;5.25;;;;;;;28.68;nan;62721.63;5091317;28;20604;-59
2023/07/25 05:51:56;;;;;;;11.57;5.65;;;;;;;28.40;nan;62693.34;5091616;28;20177;-59
2023/07/25 05:54:21;;;;;;;8.05;5.03;;;;;;;28.51;nan;62684.34;5091551;28;20226;-59
2023/07/25 05:56:47;;;;;;;7.72;5.13;;;;;;;28.29;nan;62648.63;5091594;28;20165;-60
2023/07/25 05:59:12;;;;;;;10.43;5.50;;;;;;;28.53;nan;62720.81;5091555;28;20177;-60
2023/07/25 06:01:41;;;;;;;10.95;5.95;;;;;;;28.47;nan;62842.81;5091370;28;20193;-59
2023/07/25 06:04:06;;;;;;;9.15;5.35;;;;;;;28.73;nan;62701.66;5091183;28;20742;-59
2023/07/25 06:06:32;;;;;;;10.35;5.88;;;;;;;28.74;nan;62902.19;5092163;28;20371;-59
2023/07/25 06:08:57;;;;;;;9.48;5.30;;;;;;;28.68;nan;62816.91;5091520;28;20225;-59
2023/07/25 06:11:23;;;;;;;11.05;5.78;;;;;;;28.52;nan;62830.13;5091335;28;20235;-59
2023/07/25 06:13:49;;;;;;;9.63;5.53;;;;;;;28.52;nan;62759.13;5091609;28;20225;-60
2023/07/25 06:16:17;;;;;;;10.10;5.88;;;;;;;28.29;nan;62690.69;5091428;28;20264;-60
2023/07/25 06:18:43;;;;;;;12.73;5.55;;;;;;;28.47;nan;62740.81;5091264;28;20161;-60
2023/07/25 06:21:08;;;;;;;9.90;5.60;;;;;;;27.90;nan;62647.16;5093006;28;20193;-60
2023/07/25 06:23:33;;;;;;;11.98;5.90;;;;;;;28.20;nan;62824.97;5095441;28;20162;-59
2023/07/25 06:25:59;;;;;;;9.68;5.65;;;;;;;28.59;nan;62814.50;5095387;28;20193;-59
2023/07/25 06:28:24;;;;;;;9.15;5.63;;;;;;;28.50;nan;62833.09;5094729;28;20177;-60
2023/07/25 06:30:49;;;;;;;9.38;5.20;;;;;;;28.63;nan;62832.22;5076376;28;20174;-60
2023/07/25 06:33:15;;;;;;;11.05;5.70;;;;;;;28.51;nan;62869.00;5094894;28;20175;-59
2023/07/25 06:35:41;;;;;;;9.88;5.53;;;;;;;28.40;nan;62714.38;5095227;28;20175;-59
2023/07/25 06:38:06;;;;;;;10.25;5.43;;;;;;;28.01;nan;62628.22;5095111;28;20201;-59
2023/07/25 06:40:32;;;;;;;8.52;5.30;;;;;;;28.66;nan;62719.94;5094619;28;20169;-60
2023/07/25 06:42:57;;;;;;;8.80;5.57;;;;;;;28.46;nan;62673.91;5094498;28;20197;-60
2023/07/25 06:45:22;;;;;;;9.18;5.55;;;;;;;28.81;nan;62844.47;5076131;28;20230;-60
2023/07/25 06:47:48;;;;;;;10.48;5.72;;;;;;;28.89;nan;62832.59;5094272;28;20631;-59
2023/07/25 06:50:13;;;;;;;10.98;5.38;;;;;;;29.03;nan;62782.25;5094496;28;20176;-60
2023/07/25 06:52:39;;;;;;;9.88;6.07;;;;;;;29.02;nan;62752.72;5094927;28;20173;-60
2023/07/25 06:55:05;;;;;;;11.45;5.70;;;;;;;29.39;nan;62976.31;5094782;28;20165;-61
2023/07/25 06:57:31;;;;;;;10.20;5.40;;;;;;;29.88;nan;62912.88;5094793;28;20246;-59
2023/07/25 06:59:56;;;;;;;10.25;5.70;;;;;;;29.82;nan;62896.03;5094171;28;20600;-61
2023/07/25 07:02:22;;;;;;;9.75;5.40;;;;;;;30.31;nan;63001.84;5094173;28;20255;-59
2023/07/25 07:04:47;;;;;;;10.13;5.30;;;;;;;30.33;nan;62988.34;5094195;28;20217;-59
2023/07/25 07:07:13;;;;;;;10.30;5.85;;;;;;;30.56;nan;63062.28;5094624;28;20168;-59
2023/07/25 07:09:38;;;;;;;9.23;5.60;;;;;;;30.44;nan;62979.84;5094211;28;20666;-60
2023/07/25 07:12:04;;;;;;;11.77;5.30;;;;;;;30.19;nan;63030.28;5094352;28;20179;-59
2023/07/25 07:14:29;;;;;;;9.60;5.55;;;;;;;30.27;nan;62963.53;5093923;28;20200;-59
2023/07/25 07:16:55;;;;;;;12.27;6.00;;;;;;;30.05;nan;63059.00;5093872;28;20588;-60
2023/07/25 07:19:20;;;;;;;16.45;6.60;;;;;;;29.97;nan;62942.25;5094300;28;20211;-59
2023/07/25 07:21:46;;;;;;;11.20;5.60;;;;;;;30.08;nan;62970.72;5094010;28;20574;-59
2023/07/25 07:24:11;;;;;;;11.65;6.63;;;;;;;29.95;nan;63011.16;5093896;28;20179;-59
2023/07/25 07:26:37;;;;;;;11.02;5.82;;;;;;;30.03;nan;62930.13;5093649;28;20165;-60
2023/07/25 07:29:02;;;;;;;11.35;6.35;;;;;;;30.54;nan;63057.34;5093963;28;20172;-59
2023/07/25 07:31:27;;;;;;;11.77;6.22;;;;;;;30.85;nan;63115.59;5093088;28;20165;-59
2023/07/25 07:34:08;;;;;;;10.18;5.95;;;;;;;30.92;nan;63177.03;5093771;28;20252;-59
2023/07/25 07:36:33;;;;;;;11.75;6.45;;;;;;;31.04;nan;63409.50;5093663;28;20172;-59
2023/07/25 07:38:59;;;;;;;10.07;5.93;;;;;;;31.00;nan;63119.66;5075501;28;20179;-59
2023/07/25 07:41:24;;;;;;;12.10;6.50;;;;;;;31.37;nan;63201.91;5093509;28;20189;-59
2023/07/25 07:43:49;;;;;;;9.57;6.03;;;;;;;31.50;nan;63499.69;5093382;28;20213;-59
2023/07/25 07:46:15;;;;;;;13.48;6.90;;;;;;;31.31;nan;63160.63;5093471;28;20682;-58
2023/07/25 07:48:43;;;;;;;12.98;6.93;;;;;;;31.72;nan;63246.38;5093742;28;20172;-59
2023/07/25 07:51:08;;;;;;;12.20;6.82;;;;;;;31.81;nan;63314.94;5093096;28;20176;-59
2023/07/25 07:53:34;;;;;;;14.35;7.93;;;;;;;31.88;nan;63235.72;5093205;28;20180;-59
2023/07/25 07:56:03;;;;;;;14.63;7.60;;;;;;;31.78;nan;63197.75;5093180;28;20200;-60
2023/07/25 07:58:29;;;;;;;12.80;6.93;;;;;;;31.70;nan;63204.41;5093075;28;20169;-60
2023/07/25 08:00:54;;;;;;;10.23;6.53;;;;;;;31.96;nan;63525.28;5092857;28;20184;-59
2023/07/25 08:03:19;;;;;;;9.88;6.38;;;;;;;29.41;nan;62995.00;5093335;28;20180;-59
2023/07/25 08:05:45;;;;;;;12.77;7.53;;;;;;;31.95;nan;63346.94;5092613;28;20727;-59
2023/07/25 08:08:11;;;;;;;13.00;6.82;;;;;;;31.73;nan;63332.13;5080580;28;20177;-59
2023/07/25 08:10:36;;;;;;;10.57;6.63;;;;;;;32.24;nan;63414.81;5087021;28;20623;-59
2023/07/25 08:13:01;;;;;;;13.25;7.35;;;;;;;32.37;nan;63331.34;5075694;28;20230;-61
2023/07/25 08:15:27;;;;;;;12.98;7.63;;;;;;;31.60;nan;63367.34;5073747;28;20185;-59
2023/07/25 08:17:52;;;;;;;13.18;7.18;;;;;;;31.84;nan;63263.41;5074495;28;20181;-59
2023/07/25 08:20:18;;;;;;;11.52;6.88;;;;;;;31.54;nan;63150.09;5072350;28;20540;-59
2023/07/25 08:22:43;;;;;;;11.13;6.22;;;;;;;31.60;nan;63237.81;5072125;28;20219;-60
2023/07/25 08:25:11;;;;;;;15.88;6.55;;;;;;;31.93;nan;63302.88;4459810;28;20867;-60
2023/07/25 08:27:36;;;;;;;11.20;6.22;;;;;;;31.91;nan;63228.59;4442194;28;20954;-60
2023/07/25 08:30:02;;;;;;;11.88;6.43;;;;;;;32.17;nan;63322.06;5057487;28;20576;-61
2023/07/25 08:32:28;;;;;;;10.80;6.28;;;;;;;32.03;nan;63305.31;5071980;28;20260;-60
2023/07/25 08:34:53;;;;;;;15.07;6.35;;;;;;;32.44;nan;63408.78;5071860;28;20547;-59
2023/07/25 08:37:18;;;;;;;11.98;6.40;;;;;;;31.88;nan;63352.09;5072058;28;20184;-59
2023/07/25 08:39:44;;;;;;;11.23;6.65;;;;;;;32.01;nan;63298.31;5071837;28;20546;-59
2023/07/25 08:42:11;;;;;;;13.15;7.05;;;;;;;32.18;nan;63195.66;5071499;28;20236;-59
2023/07/25 08:44:39;;;;;;;12.98;6.15;;;;;;;32.62;nan;63442.22;5071095;28;20688;-60
2023/07/25 08:47:14;;;;;;;12.43;6.18;;;;;;;32.83;nan;63450.06;5071412;28;20170;-60
2023/07/25 08:49:40;;;;;;;10.65;6.00;;;;;;;32.99;nan;63489.13;5070528;28;20165;-60
2023/07/25 08:52:08;;;;;;;11.80;6.40;;;;;;;32.92;nan;63412.75;5071718;28;20560;-59
2023/07/25 08:54:36;;;;;;;12.45;6.68;;;;;;;33.17;nan;63521.13;5071924;28;20258;-59
2023/07/25 08:57:03;;;;;;;11.48;6.50;;;;;;;33.01;nan;63481.44;5071751;28;20196;-59
2023/07/25 08:59:29;;;;;;;12.85;6.35;;;;;;;33.05;nan;63528.44;5072300;28;20655;-59
2023/07/25 09:01:55;;;;;;;13.43;6.57;;;;;;;32.69;nan;63407.41;5071780;28;20211;-59
2023/07/25 09:04:25;;;;;;;12.05;6.68;;;;;;;32.73;nan;63446.44;5071760;28;20165;-60
2023/07/25 09:06:50;;;;;;;11.32;6.32;;;;;;;32.83;nan;63583.03;5071931;28;20541;-60
2023/07/25 09:09:16;;;;;;;9.75;6.28;;;;;;;32.68;nan;63377.13;5071496;28;20169;-60
2023/07/25 09:11:43;;;;;;;11.73;6.43;;;;;;;32.77;nan;63486.06;5072409;28;20195;-60
2023/07/25 09:14:08;;;;;;;9.35;5.68;;;;;;;33.06;nan;63481.91;5071757;28;20177;-59
2023/07/25 09:16:34;;;;;;;10.45;6.22;;;;;;;32.85;nan;63510.63;5071697;28;20537;-59
2023/07/25 09:18:59;;;;;;;8.80;5.53;;;;;;;33.18;nan;63497.84;5071188;28;20667;-59
2023/07/25 09:21:26;;;;;;;10.25;5.68;;;;;;;32.76;nan;63413.41;5075472;28;20196;-60
2023/07/25 09:23:53;;;;;;;13.73;5.85;;;;;;;32.71;nan;63415.00;5085123;28;20194;-59
2023/07/25 09:26:25;;;;;;;8.95;5.82;;;;;;;32.65;nan;63508.69;5071716;28;20579;-60
2023/07/25 09:28:56;;;;;;;10.85;5.95;;;;;;;32.40;nan;63332.72;5084152;28;20196;-60
2023/07/25 09:31:22;;;;;;;10.18;6.30;;;;;;;32.22;nan;63311.97;5091868;28;20230;-60
2023/07/25 09:33:52;;;;;;;10.45;5.53;;;;;;;32.16;nan;63260.06;5091884;28;20679;-60
2023/07/25 09:36:19;;;;;;;10.38;5.10;;;;;;;32.71;nan;63389.09;5091772;28;20168;-60
2023/07/25 09:38:54;;;;;;;10.27;6.10;;;;;;;33.03;nan;63486.38;5091743;28;20245;-60
2023/07/25 09:41:21;;;;;;;9.65;5.55;;;;;;;32.97;nan;63476.78;5091529;28;20192;-60
2023/07/25 09:43:47;;;;;;;9.80;5.78;;;;;;;33.03;nan;63536.16;5091746;28;20267;-60
2023/07/25 09:46:12;;;;;;;11.93;6.00;;;;;;;32.91;nan;63516.97;5092011;28;20205;-61
2023/07/25 09:48:51;;;;;;;9.75;5.78;;;;;;;33.12;nan;63429.94;5091839;28;20297;-60
2023/07/25 09:51:16;;;;;;;10.98;5.78;;;;;;;33.11;nan;63434.13;5091318;28;20713;-60
2023/07/25 09:53:43;;;;;;;8.40;5.53;;;;;;;33.07;nan;63477.16;5091699;28;20176;-60
2023/07/25 09:56:09;;;;;;;14.82;7.10;;;;;;;33.11;nan;63463.81;5093151;28;20173;-60
2023/07/25 09:58:35;;;;;;;10.52;6.10;;;;;;;33.17;nan;63555.59;5095484;28;20259;-59
2023/07/25 10:01:02;;;;;;;9.75;5.75;;;;;;;33.10;nan;63502.44;5095502;28;20247;-59
2023/07/25 10:03:29;;;;;;;10.52;6.22;;;;;;;33.30;nan;63514.38;5095643;28;20181;-59
2023/07/25 10:05:55;;;;;;;10.25;6.20;;;;;;;33.35;nan;63559.91;5095477;28;20224;-59
2023/07/25 10:08:21;;;;;;;9.10;5.90;;;;;;;33.29;nan;63513.78;5095220;28;20290;-59
2023/07/25 10:10:48;;;;;;;12.68;5.90;;;;;;;33.14;nan;63567.41;5095556;28;20169;-59
2023/07/25 10:13:14;;;;;;;11.07;6.20;;;;;;;33.56;nan;63641.97;5095490;28;20172;-59
2023/07/25 10:15:40;;;;;;;11.93;6.53;;;;;;;33.63;nan;63549.84;5095315;28;20165;-59
2023/07/25 10:18:19;;;;;;;11.68;5.82;;;;;;;33.63;nan;63597.59;5094902;28;20164;-60
2023/07/25 10:20:44;;;;;;;11.93;5.97;;;;;;;33.58;nan;63501.06;5095615;28;20168;-60
2023/07/25 10:23:11;;;;;;;10.27;5.97;;;;;;;33.43;nan;63534.72;5094795;28;20259;-59
2023/07/25 10:25:37;;;;;;;9.85;6.32;;;;;;;33.51;nan;63633.53;5094846;28;20213;-60
2023/07/25 10:28:03;;;;;;;10.15;5.97;;;;;;;33.63;nan;63543.97;5094841;28;20211;-60
2023/07/25 10:30:31;;;;;;;12.38;6.70;;;;;;;33.62;nan;63500.38;5094530;28;20737;-62
2023/07/25 10:33:01;;;;;;;9.10;6.05;;;;;;;33.58;nan;63618.31;5094940;28;20359;-60
2023/07/25 10:35:49;;;;;;;11.88;6.40;;;;;;;34.05;nan;63711.97;5094858;28;20175;-60
2023/07/25 10:38:22;;;;;;;15.02;7.00;;;;;;;34.47;nan;63733.50;5094987;28;20189;-59
2023/07/25 10:40:56;;;;;;;11.18;6.30;;;;;;;34.47;nan;63706.38;5094488;28;20256;-60
2023/07/25 10:43:26;;;;;;;14.15;5.63;;;;;;;34.42;nan;63743.06;5094777;28;20188;-60
2023/07/25 10:45:53;;;;;;;13.27;6.07;;;;;;;34.48;nan;63700.16;5094660;28;20223;-60
2023/07/25 10:48:33;;;;;;;11.70;6.47;;;;;;;34.90;nan;64077.19;5094642;28;20173;-60
2023/07/25 10:51:01;;;;;;;18.30;6.70;;;;;;;34.35;nan;63847.06;5094567;28;20662;-59
2023/07/25 10:53:27;;;;;;;10.50;6.70;;;;;;;34.91;nan;63914.13;5094174;28;20183;-59
2023/07/25 10:56:04;;;;;;;11.60;5.85;;;;;;;35.31;nan;63914.25;5094383;28;20557;-59
2023/07/25 10:58:56;;;;;;;14.55;6.53;;;;;;;35.06;nan;63922.41;5094331;28;20175;-60
2023/07/25 11:01:32;;;;;;;14.35;6.65;;;;;;;34.94;nan;63834.66;5093582;28;20207;-60
2023/07/25 11:04:44;;;;;;;17.30;6.72;;;;;;;34.79;nan;63828.47;5094090;28;20177;-60
2023/07/25 11:07:13;;;;;;;13.05;6.22;;;;;;;34.67;nan;63703.00;5089748;28;20192;-60
2023/07/25 11:09:43;;;;;;;12.27;6.15;;;;;;;34.71;nan;63859.06;5094012;28;20184;-60
2023/07/25 11:12:10;;;;;;;8.77;5.40;;;;;;;34.91;nan;63943.38;5094048;28;20236;-60
2023/07/25 11:14:43;;;;;;;13.10;5.70;;;;;;;34.85;nan;63819.50;5094443;28;20218;-58
2023/07/25 11:17:10;;;;;;;9.88;6.07;;;;;;;35.18;nan;63901.81;5094166;28;20169;-59
2023/07/25 11:19:36;;;;;;;10.13;6.20;;;;;;;35.27;nan;63843.13;5093885;28;20201;-59
2023/07/25 11:22:11;;;;;;;10.55;6.00;;;;;;;35.50;nan;63944.28;5093770;28;20283;-60
2023/07/25 11:24:44;;;;;;;12.38;6.32;;;;;;;35.75;nan;64034.53;5093793;28;20663;-60
2023/07/25 11:27:10;;;;;;;10.43;6.43;;;;;;;35.95;nan;64029.97;5094261;28;20192;-58
2023/07/25 11:29:35;;;;;;;12.10;6.40;;;;;;;35.37;nan;63895.19;5093766;28;20172;-60
2023/07/25 11:32:01;;;;;;;10.43;6.40;;;;;;;35.31;nan;64129.66;5093975;28;20177;-61
2023/07/25 11:34:27;;;;;;;8.57;5.65;;;;;;;35.29;nan;63874.69;5094118;28;20260;-59
2023/07/25 11:36:54;;;;;;;8.82;5.25;;;;;;;35.54;nan;63954.25;5093587;28;20176;-60
2023/07/25 11:39:19;;;;;;;10.00;5.68;;;;;;;35.25;nan;64058.84;5093381;28;20181;-61
2023/07/25 11:41:45;;;;;;;11.60;6.10;;;;;;;35.85;nan;63945.00;5086139;28;20228;-60